sensor_id;sensor_type;location;lat;lon;timestamp;pressure;altitude;pressure_sealevel;temperature;humidity
45888;BME280;31595;51.418;7.572;2022-11-21T00:00:53;99082.81;;;7.14;69.40
45888;BME280;31595;51.418;7.572;2022-11-21T00:03:20;99082.63;;;7.10;69.23
45888;BME280;31595;51.418;7.572;2022-11-21T00:05:49;99080.50;;;7.07;69.91
45888;BME280;31595;51.418;7.572;2022-11-21T00:08:18;99082.16;;;7.08;69.69
45888;BME280;31595;51.418;7.572;2022-11-21T00:10:48;99088.19;;;7.10;69.37
45888;BME280;31595;51.418;7.572;2022-11-21T00:13:17;99095.34;;;7.11;68.51
45888;BME280;31595;51.418;7.572;2022-11-21T00:15:45;99090.28;;;6.96;68.85
45888;BME280;31595;51.418;7.572;2022-11-21T00:18:12;99104.25;;;6.82;68.40
45888;BME280;31595;51.418;7.572;2022-11-21T00:20:40;99108.50;;;6.80;69.08
45888;BME280;31595;51.418;7.572;2022-11-21T00:23:10;99104.25;;;6.74;68.54
45888;BME280;31595;51.418;7.572;2022-11-21T00:25:37;99105.09;;;6.74;68.73
45888;BME280;31595;51.418;7.572;2022-11-21T00:28:06;99107.84;;;6.74;68.18
45888;BME280;31595;51.418;7.572;2022-11-21T00:30:34;99108.97;;;6.73;68.61
45888;BME280;31595;51.418;7.572;2022-11-21T00:33:01;99106.50;;;6.71;68.34
45888;BME280;31595;51.418;7.572;2022-11-21T00:35:29;99112.53;;;6.65;68.32
45888;BME280;31595;51.418;7.572;2022-11-21T00:37:59;99111.91;;;6.68;68.76
45888;BME280;31595;51.418;7.572;2022-11-21T00:40:27;99116.09;;;6.65;67.66
45888;BME280;31595;51.418;7.572;2022-11-21T00:42:54;99116.28;;;6.69;68.18
45888;BME280;31595;51.418;7.572;2022-11-21T00:45:22;99115.66;;;6.72;68.40
45888;BME280;31595;51.418;7.572;2022-11-21T00:47:50;99127.03;;;6.70;68.69
45888;BME280;31595;51.418;7.572;2022-11-21T00:50:17;99123.47;;;6.70;68.14
45888;BME280;31595;51.418;7.572;2022-11-21T00:52:44;99117.94;;;6.70;68.16
45888;BME280;31595;51.418;7.572;2022-11-21T00:55:12;99120.19;;;6.68;67.29
45888;BME280;31595;51.418;7.572;2022-11-21T00:57:39;99124.09;;;6.67;67.53
45888;BME280;31595;51.418;7.572;2022-11-21T01:00:07;99114.19;;;6.66;68.11
45888;BME280;31595;51.418;7.572;2022-11-21T01:02:36;99125.75;;;6.68;67.23
45888;BME280;31595;51.418;7.572;2022-11-21T01:05:04;99116.94;;;6.66;67.59
45888;BME280;31595;51.418;7.572;2022-11-21T01:07:31;99120.03;;;6.64;67.22
45888;BME280;31595;51.418;7.572;2022-11-21T01:09:58;99127.50;;;6.64;66.78
45888;BME280;31595;51.418;7.572;2022-11-21T01:12:26;99130.44;;;6.67;66.80
45888;BME280;31595;51.418;7.572;2022-11-21T01:14:53;99127.34;;;6.69;66.70
45888;BME280;31595;51.418;7.572;2022-11-21T01:17:20;99131.91;;;6.65;66.57
45888;BME280;31595;51.418;7.572;2022-11-21T01:19:49;99132.56;;;6.62;67.39
45888;BME280;31595;51.418;7.572;2022-11-21T01:22:16;99138.56;;;6.55;66.96
45888;BME280;31595;51.418;7.572;2022-11-21T01:24:43;99138.69;;;6.50;67.05
45888;BME280;31595;51.418;7.572;2022-11-21T01:27:12;99137.72;;;6.55;67.07
45888;BME280;31595;51.418;7.572;2022-11-21T01:29:39;99140.19;;;6.56;67.20
45888;BME280;31595;51.418;7.572;2022-11-21T01:32:07;99144.25;;;6.59;66.80
45888;BME280;31595;51.418;7.572;2022-11-21T01:34:37;99143.09;;;6.51;67.07
45888;BME280;31595;51.418;7.572;2022-11-21T01:37:06;99146.38;;;6.53;67.94
45888;BME280;31595;51.418;7.572;2022-11-21T01:39:33;99146.03;;;6.55;67.47
45888;BME280;31595;51.418;7.572;2022-11-21T01:42:04;99147.78;;;6.50;67.81
45888;BME280;31595;51.418;7.572;2022-11-21T01:44:46;99148.78;;;6.55;67.74
45888;BME280;31595;51.418;7.572;2022-11-21T01:47:14;99150.28;;;6.61;68.28
45888;BME280;31595;51.418;7.572;2022-11-21T01:49:42;99152.91;;;6.66;67.66
45888;BME280;31595;51.418;7.572;2022-11-21T01:52:14;99151.25;;;6.65;67.46
45888;BME280;31595;51.418;7.572;2022-11-21T01:54:46;99150.78;;;6.63;67.59
45888;BME280;31595;51.418;7.572;2022-11-21T01:57:18;99158.56;;;6.61;67.73
45888;BME280;31595;51.418;7.572;2022-11-21T01:59:50;99156.63;;;6.61;67.34
45888;BME280;31595;51.418;7.572;2022-11-21T02:02:20;99150.59;;;6.59;67.05
45888;BME280;31595;51.418;7.572;2022-11-21T02:04:50;99155.78;;;6.52;67.25
45888;BME280;31595;51.418;7.572;2022-11-21T02:07:21;99147.78;;;6.50;67.05
45888;BME280;31595;51.418;7.572;2022-11-21T02:09:54;99154.81;;;6.57;67.43
45888;BME280;31595;51.418;7.572;2022-11-21T02:12:25;99149.16;;;6.62;67.60
45888;BME280;31595;51.418;7.572;2022-11-21T02:14:55;99149.50;;;6.69;66.96
45888;BME280;31595;51.418;7.572;2022-11-21T02:17:24;99154.22;;;6.68;66.94
45888;BME280;31595;51.418;7.572;2022-11-21T02:19:56;99151.75;;;6.67;66.62
45888;BME280;31595;51.418;7.572;2022-11-21T02:22:33;99156.78;;;6.65;66.77
45888;BME280;31595;51.418;7.572;2022-11-21T02:25:09;99152.22;;;6.60;66.87
45888;BME280;31595;51.418;7.572;2022-11-21T02:27:38;99158.25;;;6.62;67.60
45888;BME280;31595;51.418;7.572;2022-11-21T02:30:08;99155.81;;;6.61;66.84
45888;BME280;31595;51.418;7.572;2022-11-21T02:32:37;99152.53;;;6.59;66.77
45888;BME280;31595;51.418;7.572;2022-11-21T02:35:06;99149.78;;;6.59;66.91
45888;BME280;31595;51.418;7.572;2022-11-21T02:37:35;99149.16;;;6.62;66.67
45888;BME280;31595;51.418;7.572;2022-11-21T02:40:08;99154.03;;;6.65;66.84
45888;BME280;31595;51.418;7.572;2022-11-21T02:42:40;99152.84;;;6.57;67.01
45888;BME280;31595;51.418;7.572;2022-11-21T02:45:13;99155.31;;;6.59;66.80
45888;BME280;31595;51.418;7.572;2022-11-21T02:47:43;99155.31;;;6.59;67.51
45888;BME280;31595;51.418;7.572;2022-11-21T02:50:13;99152.84;;;6.57;66.85
45888;BME280;31595;51.418;7.572;2022-11-21T02:52:42;99149.78;;;6.59;67.00
45888;BME280;31595;51.418;7.572;2022-11-21T02:55:10;99156.97;;;6.60;67.54
45888;BME280;31595;51.418;7.572;2022-11-21T02:57:38;99161.03;;;6.62;67.01
45888;BME280;31595;51.418;7.572;2022-11-21T03:00:09;99158.56;;;6.61;66.94
45888;BME280;31595;51.418;7.572;2022-11-21T03:02:37;99154.69;;;6.62;66.59
45888;BME280;31595;51.418;7.572;2022-11-21T03:05:06;99161.03;;;6.62;66.60
45888;BME280;31595;51.418;7.572;2022-11-21T03:07:36;99161.03;;;6.62;66.88
45888;BME280;31595;51.418;7.572;2022-11-21T03:10:04;99160.88;;;6.67;66.42
45888;BME280;31595;51.418;7.572;2022-11-21T03:12:34;99160.56;;;6.69;66.93
45888;BME280;31595;51.418;7.572;2022-11-21T03:15:02;99158.59;;;6.69;67.08
45888;BME280;31595;51.418;7.572;2022-11-21T03:17:32;99156.31;;;6.71;67.26
45888;BME280;31595;51.418;7.572;2022-11-21T03:20:00;99156.66;;;6.70;67.04
45888;BME280;31595;51.418;7.572;2022-11-21T03:22:27;99151.13;;;6.70;68.10
45888;BME280;31595;51.418;7.572;2022-11-21T03:24:54;99155.50;;;6.71;67.44
45888;BME280;31595;51.418;7.572;2022-11-21T03:27:22;99156.50;;;6.75;66.88
45888;BME280;31595;51.418;7.572;2022-11-21T03:29:50;99152.94;;;6.75;66.98
45888;BME280;31595;51.418;7.572;2022-11-21T03:32:21;99155.38;;;6.76;66.33
45888;BME280;31595;51.418;7.572;2022-11-21T03:34:48;99161.06;;;6.71;66.64
45888;BME280;31595;51.418;7.572;2022-11-21T03:37:15;99164.47;;;6.68;66.49
45888;BME280;31595;51.418;7.572;2022-11-21T03:39:42;99155.03;;;6.69;66.93
45888;BME280;31595;51.418;7.572;2022-11-21T03:42:10;99168.69;;;6.65;67.11
45888;BME280;31595;51.418;7.572;2022-11-21T03:44:37;99166.25;;;6.64;67.02
45888;BME280;31595;51.418;7.572;2022-11-21T03:47:05;99169.00;;;6.64;67.13
45888;BME280;31595;51.418;7.572;2022-11-21T03:49:33;99163.47;;;6.64;66.62
45888;BME280;31595;51.418;7.572;2022-11-21T03:52:00;99170.00;;;6.68;66.60
45888;BME280;31595;51.418;7.572;2022-11-21T03:54:27;99168.19;;;6.63;67.29
45888;BME280;31595;51.418;7.572;2022-11-21T03:56:57;99173.41;;;6.65;67.11
45888;BME280;31595;51.418;7.572;2022-11-21T03:59:24;99167.38;;;6.63;66.99
45888;BME280;31595;51.418;7.572;2022-11-21T04:01:52;99162.97;;;6.62;68.25
45888;BME280;31595;51.418;7.572;2022-11-21T04:04:20;99162.81;;;6.58;66.93
45888;BME280;31595;51.418;7.572;2022-11-21T04:06:47;99159.69;;;6.51;66.42
45888;BME280;31595;51.418;7.572;2022-11-21T04:09:15;99168.09;;;6.37;66.53
45888;BME280;31595;51.418;7.572;2022-11-21T04:11:42;99164.66;;;6.40;66.97
45888;BME280;31595;51.418;7.572;2022-11-21T04:14:09;99169.59;;;6.43;67.11
45888;BME280;31595;51.418;7.572;2022-11-21T04:16:36;99169.28;;;6.45;67.45
45888;BME280;31595;51.418;7.572;2022-11-21T04:19:04;99170.88;;;6.46;67.47
45888;BME280;31595;51.418;7.572;2022-11-21T04:21:32;99164.06;;;6.43;67.77
45888;BME280;31595;51.418;7.572;2022-11-21T04:24:02;99165.16;;;6.42;67.96
45888;BME280;31595;51.418;7.572;2022-11-21T04:26:29;99160.59;;;6.38;68.19
45888;BME280;31595;51.418;7.572;2022-11-21T04:28:57;99168.91;;;6.38;67.72
45888;BME280;31595;51.418;7.572;2022-11-21T04:31:24;99165.31;;;6.37;68.16
45888;BME280;31595;51.418;7.572;2022-11-21T04:33:51;99169.09;;;6.41;67.65
45888;BME280;31595;51.418;7.572;2022-11-21T04:36:18;99169.41;;;6.40;67.78
45888;BME280;31595;51.418;7.572;2022-11-21T04:38:50;99165.16;;;6.42;67.72
45888;BME280;31595;51.418;7.572;2022-11-21T04:41:21;99164.84;;;6.44;67.97
45888;BME280;31595;51.418;7.572;2022-11-21T04:43:48;99165.03;;;6.47;67.86
45888;BME280;31595;51.418;7.572;2022-11-21T04:46:16;99169.94;;;6.50;67.81
45888;BME280;31595;51.418;7.572;2022-11-21T04:48:43;99173.69;;;6.55;68.02
45888;BME280;31595;51.418;7.572;2022-11-21T04:51:10;99174.84;;;6.54;67.47
45888;BME280;31595;51.418;7.572;2022-11-21T04:53:37;99183.75;;;6.50;67.39
45888;BME280;31595;51.418;7.572;2022-11-21T04:56:06;99184.59;;;6.51;67.70
45888;BME280;31595;51.418;7.572;2022-11-21T04:58:33;99181.00;;;6.50;67.45
45888;BME280;31595;51.418;7.572;2022-11-21T05:01:05;99193.50;;;6.48;67.10
45888;BME280;31595;51.418;7.572;2022-11-21T05:03:35;99194.97;;;6.45;66.65
45888;BME280;31595;51.418;7.572;2022-11-21T05:06:03;99186.00;;;6.40;66.02
45888;BME280;31595;51.418;7.572;2022-11-21T05:08:30;99181.69;;;6.25;66.42
45888;BME280;31595;51.418;7.572;2022-11-21T05:10:57;99184.22;;;6.13;65.42
45888;BME280;31595;51.418;7.572;2022-11-21T05:13:44;99189.91;;;6.07;66.61
45888;BME280;31595;51.418;7.572;2022-11-21T05:16:11;99182.97;;;5.96;66.87
45888;BME280;31595;51.418;7.572;2022-11-21T05:18:38;99178.06;;;5.93;66.88
45888;BME280;31595;51.418;7.572;2022-11-21T05:21:05;99168.78;;;5.89;66.80
45888;BME280;31595;51.418;7.572;2022-11-21T05:23:32;99168.91;;;5.84;66.66
45888;BME280;31595;51.418;7.572;2022-11-21T05:26:00;99169.34;;;5.77;67.00
45888;BME280;31595;51.418;7.572;2022-11-21T05:28:27;99173.84;;;5.73;67.26
45888;BME280;31595;51.418;7.572;2022-11-21T05:30:56;99168.66;;;5.72;67.36
45888;BME280;31595;51.418;7.572;2022-11-21T05:33:23;99171.09;;;5.73;67.55
45888;BME280;31595;51.418;7.572;2022-11-21T05:35:50;99169.47;;;5.72;67.96
45888;BME280;31595;51.418;7.572;2022-11-21T05:38:17;99180.38;;;5.77;67.80
45888;BME280;31595;51.418;7.572;2022-11-21T05:40:45;99171.19;;;5.82;68.14
45888;BME280;31595;51.418;7.572;2022-11-21T05:43:12;99176.88;;;5.85;68.13
45888;BME280;31595;51.418;7.572;2022-11-21T05:45:58;99176.56;;;5.87;67.55
45888;BME280;31595;51.418;7.572;2022-11-21T05:48:25;99185.16;;;5.85;67.60
45888;BME280;31595;51.418;7.572;2022-11-21T05:50:53;99183.41;;;5.89;67.42
45888;BME280;31595;51.418;7.572;2022-11-21T05:53:20;99174.09;;;5.85;67.22
45888;BME280;31595;51.418;7.572;2022-11-21T05:55:47;99183.53;;;5.84;67.74
45888;BME280;31595;51.418;7.572;2022-11-21T05:58:15;99172.78;;;5.83;67.70
45888;BME280;31595;51.418;7.572;2022-11-21T06:00:42;99170.34;;;5.81;67.95
45888;BME280;31595;51.418;7.572;2022-11-21T06:03:11;99156.91;;;5.88;68.29
45888;BME280;31595;51.418;7.572;2022-11-21T06:05:56;99160.78;;;5.87;67.90
45888;BME280;31595;51.418;7.572;2022-11-21T06:08:24;99164.81;;;5.81;68.08
45888;BME280;31595;51.418;7.572;2022-11-21T06:10:51;99158.47;;;5.81;67.48
45888;BME280;31595;51.418;7.572;2022-11-21T06:13:18;99160.38;;;5.72;68.13
45888;BME280;31595;51.418;7.572;2022-11-21T06:15:53;99157.09;;;5.69;67.89
45888;BME280;31595;51.418;7.572;2022-11-21T06:18:23;99160.47;;;5.66;68.27
45888;BME280;31595;51.418;7.572;2022-11-21T06:20:51;99154.72;;;5.77;67.99
45888;BME280;31595;51.418;7.572;2022-11-21T06:23:18;99153.75;;;5.81;68.22
45888;BME280;31595;51.418;7.572;2022-11-21T06:25:45;99162.13;;;5.90;68.94
45888;BME280;31595;51.418;7.572;2022-11-21T06:28:13;99164.25;;;5.93;68.72
45888;BME280;31595;51.418;7.572;2022-11-21T06:30:40;99166.09;;;5.98;68.46
45888;BME280;31595;51.418;7.572;2022-11-21T06:33:07;99157.50;;;5.99;68.48
45888;BME280;31595;51.418;7.572;2022-11-21T06:35:37;99151.81;;;6.04;68.29
45888;BME280;31595;51.418;7.572;2022-11-21T06:38:05;99152.00;;;6.08;68.10
45888;BME280;31595;51.418;7.572;2022-11-21T06:40:32;99157.72;;;6.12;68.03
45888;BME280;31595;51.418;7.572;2022-11-21T06:43:00;99151.72;;;6.18;68.17
45888;BME280;31595;51.418;7.572;2022-11-21T06:45:27;99148.19;;;6.26;67.81
45888;BME280;31595;51.418;7.572;2022-11-21T06:47:54;99151.28;;;6.25;68.33
45888;BME280;31595;51.418;7.572;2022-11-21T06:50:24;99147.88;;;6.28;68.06
45888;BME280;31595;51.418;7.572;2022-11-21T06:52:52;99140.75;;;6.36;67.64
45888;BME280;31595;51.418;7.572;2022-11-21T06:55:20;99131.63;;;6.35;67.35
45888;BME280;31595;51.418;7.572;2022-11-21T06:57:48;99127.56;;;6.33;67.70
45888;BME280;31595;51.418;7.572;2022-11-21T07:00:16;99135.22;;;6.36;68.25
45888;BME280;31595;51.418;7.572;2022-11-21T07:02:43;99137.97;;;6.36;68.53
45888;BME280;31595;51.418;7.572;2022-11-21T07:05:11;99130.66;;;6.40;68.17
45888;BME280;31595;51.418;7.572;2022-11-21T07:07:38;99125.47;;;6.38;68.00
45888;BME280;31595;51.418;7.572;2022-11-21T07:10:08;99136.66;;;6.33;67.88
45888;BME280;31595;51.418;7.572;2022-11-21T07:12:35;99138.94;;;6.31;67.88
45888;BME280;31595;51.418;7.572;2022-11-21T07:15:20;99140.44;;;6.37;67.85
45888;BME280;31595;51.418;7.572;2022-11-21T07:17:47;99134.94;;;6.46;67.74
45888;BME280;31595;51.418;7.572;2022-11-21T07:20:14;99143.91;;;6.52;68.32
45888;BME280;31595;51.418;7.572;2022-11-21T07:22:41;99142.63;;;6.58;67.87
45888;BME280;31595;51.418;7.572;2022-11-21T07:25:10;99146.88;;;6.64;67.87
45888;BME280;31595;51.418;7.572;2022-11-21T07:27:37;99139.22;;;6.61;68.00
45888;BME280;31595;51.418;7.572;2022-11-21T07:30:06;99145.41;;;6.66;68.12
45888;BME280;31595;51.418;7.572;2022-11-21T07:32:33;99152.25;;;6.69;67.48
45888;BME280;31595;51.418;7.572;2022-11-21T07:35:00;99146.09;;;6.72;67.81
45888;BME280;31595;51.418;7.572;2022-11-21T07:37:28;99145.13;;;6.77;67.95
45888;BME280;31595;51.418;7.572;2022-11-21T07:39:55;99149.00;;;6.76;67.41
45888;BME280;31595;51.418;7.572;2022-11-21T07:42:24;99153.09;;;6.78;67.96
45888;BME280;31595;51.418;7.572;2022-11-21T07:44:51;99154.72;;;6.79;67.64
45888;BME280;31595;51.418;7.572;2022-11-21T07:47:18;99153.63;;;6.89;67.61
45888;BME280;31595;51.418;7.572;2022-11-21T07:49:46;99155.25;;;6.90;67.45
45888;BME280;31595;51.418;7.572;2022-11-21T07:52:13;99147.78;;;6.99;67.85
45888;BME280;31595;51.418;7.572;2022-11-21T07:54:40;99143.38;;;7.07;67.73
45888;BME280;31595;51.418;7.572;2022-11-21T07:57:07;99136.38;;;7.09;67.90
45888;BME280;31595;51.418;7.572;2022-11-21T07:59:36;99134.94;;;7.12;66.63
45888;BME280;31595;51.418;7.572;2022-11-21T08:02:03;99130.38;;;7.16;66.28
45888;BME280;31595;51.418;7.572;2022-11-21T08:04:30;99126.28;;;7.22;66.38
45888;BME280;31595;51.418;7.572;2022-11-21T08:06:58;99129.41;;;7.29;66.52
45888;BME280;31595;51.418;7.572;2022-11-21T08:09:26;99133.16;;;7.34;67.18
45888;BME280;31595;51.418;7.572;2022-11-21T08:11:54;99130.53;;;7.37;66.15
45888;BME280;31595;51.418;7.572;2022-11-21T08:14:21;99119.78;;;7.44;67.06
45888;BME280;31595;51.418;7.572;2022-11-21T08:16:51;99118.31;;;7.47;66.63
45888;BME280;31595;51.418;7.572;2022-11-21T08:19:18;99111.28;;;7.49;66.41
45888;BME280;31595;51.418;7.572;2022-11-21T08:21:46;99122.22;;;7.55;66.02
45888;BME280;31595;51.418;7.572;2022-11-21T08:24:13;99126.44;;;7.61;65.84
45888;BME280;31595;51.418;7.572;2022-11-21T08:26:42;99124.34;;;7.49;65.94
45888;BME280;31595;51.418;7.572;2022-11-21T08:29:10;99120.41;;;7.59;66.98
45888;BME280;31595;51.418;7.572;2022-11-21T08:31:37;99110.78;;;7.47;66.21
45888;BME280;31595;51.418;7.572;2022-11-21T08:34:07;99109.66;;;7.57;66.76
45888;BME280;31595;51.418;7.572;2022-11-21T08:36:34;99106.88;;;7.66;66.72
45888;BME280;31595;51.418;7.572;2022-11-21T08:39:02;99105.72;;;7.76;66.78
45888;BME280;31595;51.418;7.572;2022-11-21T08:41:30;99097.88;;;7.86;66.22
45888;BME280;31595;51.418;7.572;2022-11-21T08:44:15;99093.44;;;7.94;66.95
45888;BME280;31595;51.418;7.572;2022-11-21T08:46:42;99094.53;;;8.02;66.05
45888;BME280;31595;51.418;7.572;2022-11-21T08:49:11;99098.78;;;8.08;66.61
45888;BME280;31595;51.418;7.572;2022-11-21T08:51:38;99094.19;;;8.12;65.23
45888;BME280;31595;51.418;7.572;2022-11-21T08:54:05;99100.06;;;8.19;65.25
45888;BME280;31595;51.418;7.572;2022-11-21T08:56:34;99095.00;;;8.21;64.87
45888;BME280;31595;51.418;7.572;2022-11-21T08:59:01;99088.91;;;8.28;65.24
45888;BME280;31595;51.418;7.572;2022-11-21T09:01:28;99090.03;;;8.27;65.21
45888;BME280;31595;51.418;7.572;2022-11-21T09:03:56;99083.84;;;8.30;65.83
45888;BME280;31595;51.418;7.572;2022-11-21T09:06:25;99087.91;;;8.32;65.91
45888;BME280;31595;51.418;7.572;2022-11-21T09:08:52;99082.84;;;8.34;65.07
45888;BME280;31595;51.418;7.572;2022-11-21T09:11:19;99080.22;;;8.38;65.29
45888;BME280;31595;51.418;7.572;2022-11-21T09:13:47;99076.25;;;8.48;66.24
45888;BME280;31595;51.418;7.572;2022-11-21T09:16:35;99080.84;;;8.52;65.92
45888;BME280;31595;51.418;7.572;2022-11-21T09:19:19;99072.97;;;8.54;65.51
45888;BME280;31595;51.418;7.572;2022-11-21T09:21:49;99083.34;;;8.66;66.20
45888;BME280;31595;51.418;7.572;2022-11-21T09:24:17;99092.00;;;8.65;66.21
45888;BME280;31595;51.418;7.572;2022-11-21T09:26:45;99101.34;;;8.60;65.20
45888;BME280;31595;51.418;7.572;2022-11-21T09:29:12;99091.53;;;8.63;64.76
45888;BME280;31595;51.418;7.572;2022-11-21T09:31:41;99097.91;;;8.63;66.05
45888;BME280;31595;51.418;7.572;2022-11-21T09:34:08;99093.97;;;8.64;65.65
45888;BME280;31595;51.418;7.572;2022-11-21T09:36:36;99093.66;;;8.66;64.78
45888;BME280;31595;51.418;7.572;2022-11-21T09:39:04;99088.75;;;8.63;63.99
45888;BME280;31595;51.418;7.572;2022-11-21T09:41:36;99081.66;;;8.53;65.17
45888;BME280;31595;51.418;7.572;2022-11-21T09:44:29;99088.47;;;8.56;64.67
45888;BME280;31595;51.418;7.572;2022-11-21T09:47:03;99092.88;;;8.57;65.22
45888;BME280;31595;51.418;7.572;2022-11-21T09:49:37;99080.16;;;8.56;65.08
45888;BME280;31595;51.418;7.572;2022-11-21T09:52:11;99076.56;;;8.55;65.52
45888;BME280;31595;51.418;7.572;2022-11-21T09:54:46;99079.94;;;8.61;65.46
45888;BME280;31595;51.418;7.572;2022-11-21T09:57:17;99082.94;;;8.56;65.35
45888;BME280;31595;51.418;7.572;2022-11-21T09:59:45;99078.00;;;8.61;64.48
45888;BME280;31595;51.418;7.572;2022-11-21T10:02:18;99074.53;;;8.64;64.41
45888;BME280;31595;51.418;7.572;2022-11-21T10:04:46;99075.34;;;8.65;64.63
45888;BME280;31595;51.418;7.572;2022-11-21T10:07:17;99070.00;;;8.60;64.40
45888;BME280;31595;51.418;7.572;2022-11-21T10:10:01;99079.28;;;8.64;65.01
45888;BME280;31595;51.418;7.572;2022-11-21T10:12:35;99064.94;;;8.62;64.58
45888;BME280;31595;51.418;7.572;2022-11-21T10:15:18;99062.16;;;8.62;65.29
45888;BME280;31595;51.418;7.572;2022-11-21T10:18:17;99055.25;;;8.68;65.98
45888;BME280;31595;51.418;7.572;2022-11-21T10:20:55;99049.81;;;8.80;65.17
45888;BME280;31595;51.418;7.572;2022-11-21T10:23:43;99047.69;;;8.98;64.46
45888;BME280;31595;51.418;7.572;2022-11-21T10:26:21;99039.81;;;9.21;65.94
45888;BME280;31595;51.418;7.572;2022-11-21T10:28:57;99038.03;;;9.38;64.94
45888;BME280;31595;51.418;7.572;2022-11-21T10:31:35;99026.91;;;9.71;63.57
45888;BME280;31595;51.418;7.572;2022-11-21T10:34:09;99023.47;;;9.99;64.35
45888;BME280;31595;51.418;7.572;2022-11-21T10:36:39;99011.53;;;10.10;63.73
45888;BME280;31595;51.418;7.572;2022-11-21T10:39:19;99009.03;;;10.30;63.47
45888;BME280;31595;51.418;7.572;2022-11-21T10:41:56;98999.75;;;10.38;63.05
45888;BME280;31595;51.418;7.572;2022-11-21T10:44:26;98992.06;;;10.47;62.87
45888;BME280;31595;51.418;7.572;2022-11-21T10:47:16;98991.72;;;10.49;62.93
45888;BME280;31595;51.418;7.572;2022-11-21T10:49:59;98986.16;;;10.49;62.52
45888;BME280;31595;51.418;7.572;2022-11-21T10:52:35;98988.59;;;10.50;62.48
45888;BME280;31595;51.418;7.572;2022-11-21T10:55:08;98974.69;;;10.50;62.77
45888;BME280;31595;51.418;7.572;2022-11-21T10:57:39;98973.97;;;10.41;62.63
45888;BME280;31595;51.418;7.572;2022-11-21T11:00:21;98979.66;;;10.45;63.65
45888;BME280;31595;51.418;7.572;2022-11-21T11:03:04;98968.19;;;10.46;63.64
45888;BME280;31595;51.418;7.572;2022-11-21T11:05:34;98953.22;;;10.51;63.22
45888;BME280;31595;51.418;7.572;2022-11-21T11:08:06;98950.53;;;10.54;62.60
45888;BME280;31595;51.418;7.572;2022-11-21T11:10:36;98959.34;;;10.56;63.00
45888;BME280;31595;51.418;7.572;2022-11-21T11:13:13;98953.88;;;10.60;63.01
45888;BME280;31595;51.418;7.572;2022-11-21T11:16:02;98952.56;;;10.70;62.42
45888;BME280;31595;51.418;7.572;2022-11-21T11:18:32;98949.78;;;10.70;63.05
45888;BME280;31595;51.418;7.572;2022-11-21T11:21:22;98952.34;;;11.03;62.03
45888;BME280;31595;51.418;7.572;2022-11-21T11:23:51;98939.50;;;11.14;62.32
45888;BME280;31595;51.418;7.572;2022-11-21T11:26:24;98937.31;;;11.36;61.78
45888;BME280;31595;51.418;7.572;2022-11-21T11:29:06;98928.50;;;11.50;62.06
45888;BME280;31595;51.418;7.572;2022-11-21T11:31:45;98925.66;;;11.62;61.48
45888;BME280;31595;51.418;7.572;2022-11-21T11:34:16;98918.25;;;11.86;60.87
45888;BME280;31595;51.418;7.572;2022-11-21T11:37:05;98907.91;;;12.73;58.55
45888;BME280;31595;51.418;7.572;2022-11-21T11:39:47;98895.66;;;15.85;53.14
45888;BME280;31595;51.418;7.572;2022-11-21T11:45:54;98891.00;;;13.97;54.78
45888;BME280;31595;51.418;7.572;2022-11-21T11:48:42;98900.59;;;13.50;55.19
45888;BME280;31595;51.418;7.572;2022-11-21T11:51:18;98893.72;;;13.24;56.98
45888;BME280;31595;51.418;7.572;2022-11-21T11:53:51;98888.31;;;12.92;57.50
45888;BME280;31595;51.418;7.572;2022-11-21T11:56:23;98877.97;;;12.73;57.84
45888;BME280;31595;51.418;7.572;2022-11-21T11:58:53;98881.56;;;12.54;57.94
45888;BME280;31595;51.418;7.572;2022-11-21T12:01:28;98877.44;;;12.48;58.81
45888;BME280;31595;51.418;7.572;2022-11-21T12:04:01;98869.28;;;12.39;59.34
45888;BME280;31595;51.418;7.572;2022-11-21T12:06:33;98870.78;;;12.17;59.64
45888;BME280;31595;51.418;7.572;2022-11-21T12:09:04;98861.56;;;11.97;60.28
45888;BME280;31595;51.418;7.572;2022-11-21T12:11:49;98857.34;;;12.04;60.59
45888;BME280;31595;51.418;7.572;2022-11-21T12:14:45;98855.63;;;11.99;60.74
45888;BME280;31595;51.418;7.572;2022-11-21T12:17:38;98849.31;;;11.86;61.49
45888;BME280;31595;51.418;7.572;2022-11-21T12:20:15;98848.91;;;11.68;61.39
45888;BME280;31595;51.418;7.572;2022-11-21T12:22:46;98852.75;;;11.79;61.84
45888;BME280;31595;51.418;7.572;2022-11-21T12:25:15;98857.31;;;11.88;61.44
45888;BME280;31595;51.418;7.572;2022-11-21T12:27:49;98837.69;;;11.84;62.10
45888;BME280;31595;51.418;7.572;2022-11-21T12:30:46;98831.25;;;11.80;61.99
45888;BME280;31595;51.418;7.572;2022-11-21T12:33:20;98827.47;;;11.88;61.98
45888;BME280;31595;51.418;7.572;2022-11-21T12:35:57;98821.97;;;11.92;62.23
45888;BME280;31595;51.418;7.572;2022-11-21T12:38:48;98819.63;;;11.94;61.52
45888;BME280;31595;51.418;7.572;2022-11-21T12:41:26;98817.06;;;12.05;61.38
45888;BME280;31595;51.418;7.572;2022-11-21T12:44:24;98810.81;;;11.92;62.04
45888;BME280;31595;51.418;7.572;2022-11-21T12:47:04;98814.25;;;11.69;61.55
45888;BME280;31595;51.418;7.572;2022-11-21T12:49:41;98805.56;;;11.55;62.06
45888;BME280;31595;51.418;7.572;2022-11-21T12:52:47;98802.50;;;11.44;61.77
45888;BME280;31595;51.418;7.572;2022-11-21T12:55:35;98801.28;;;11.26;60.93
45888;BME280;31595;51.418;7.572;2022-11-21T12:58:23;98799.91;;;11.35;61.70
45888;BME280;31595;51.418;7.572;2022-11-21T13:01:11;98796.22;;;11.31;61.54
45888;BME280;31595;51.418;7.572;2022-11-21T13:03:50;98789.84;;;11.31;60.43
45888;BME280;31595;51.418;7.572;2022-11-21T13:06:25;98789.28;;;11.41;60.14
45888;BME280;31595;51.418;7.572;2022-11-21T13:08:54;98786.00;;;11.20;60.72
45888;BME280;31595;51.418;7.572;2022-11-21T13:11:29;98781.22;;;11.36;60.51
45888;BME280;31595;51.418;7.572;2022-11-21T13:14:22;98775.44;;;11.45;60.40
45888;BME280;31595;51.418;7.572;2022-11-21T13:16:57;98768.53;;;11.38;60.43
45888;BME280;31595;51.418;7.572;2022-11-21T13:19:35;98767.00;;;11.41;60.96
45888;BME280;31595;51.418;7.572;2022-11-21T13:25:12;98749.03;;;11.23;60.88
45888;BME280;31595;51.418;7.572;2022-11-21T13:28:33;98751.47;;;11.24;60.89
45888;BME280;31595;51.418;7.572;2022-11-21T13:31:03;98748.53;;;11.88;59.18
45888;BME280;31595;51.418;7.572;2022-11-21T13:33:48;98743.28;;;11.86;58.39
45888;BME280;31595;51.418;7.572;2022-11-21T13:36:36;98744.88;;;12.03;58.14